KDVL

Devils Lake Regional Airport

Devils Lake, North Dakota, USA
METAR KDVL 151456Z AUTO 21011KT 10SM CLR 19/12 A3002 RMK AO2 SLP176 T01940117 50005
Observed Flight Rules
Aug-15 @ 14:56 UTC (4 minutes ago) Visual Flight Rules
Wind Visibility Clouds
210° at 11 knots 10 miles
  • Clear skies
Temperatures Readings
Current 19°C / 66°F
Dewpoint 12°C / 54°F
Humidity 64%
Altimeter 30.02" Hg
Pressure 1017.6 hPa
Elevation 443
METAR KDVL 151456Z AUTO 21011KT 10SM CLR 19/12 A3002 RMK AO2 SLP176 T01940117 50005
Observed Flight Rules
Aug-15 @ 14:56 UTC
(4 minutes ago)
VFR
Wind Visibility
210° at 11 knots 10 miles
Clouds
  • Clear skies
Temperature Dewpoint
19°C / 66°F 12°C / 54°F
Humidity Altimeter Pressure
64% 30.02" Hg 1017.6 hPa